sensor_id;sensor_type;location;lat;lon;timestamp;pressure;altitude;pressure_sealevel;temperature;humidity
42169;BME280;27838;43.858;25.974;2023-06-10T00:01:38;100482.56;;;24.06;40.42
42169;BME280;27838;43.858;25.974;2023-06-10T00:04:06;100465.16;;;24.00;40.27
42169;BME280;27838;43.858;25.974;2023-06-10T00:06:32;100467.06;;;23.98;40.03
42169;BME280;27838;43.858;25.974;2023-06-10T00:09:04;100472.38;;;23.98;40.17
42169;BME280;27838;43.858;25.974;2023-06-10T00:11:32;100480.28;;;24.00;40.39
42169;BME280;27838;43.858;25.974;2023-06-10T00:14:00;100481.97;;;24.01;40.09
42169;BME280;27838;43.858;25.974;2023-06-10T00:16:26;100480.09;;;24.03;40.16
42169;BME280;27838;43.858;25.974;2023-06-10T00:18:54;100473.81;;;24.04;40.28
42169;BME280;27838;43.858;25.974;2023-06-10T00:21:25;100468.50;;;24.04;40.85
42169;BME280;27838;43.858;25.974;2023-06-10T00:23:52;100473.22;;;23.99;41.96
42169;BME280;27838;43.858;25.974;2023-06-10T00:26:21;100469.81;;;23.97;42.17
42169;BME280;27838;43.858;25.974;2023-06-10T00:28:48;100465.63;;;23.92;43.00
42169;BME280;27838;43.858;25.974;2023-06-10T00:31:15;100468.28;;;23.92;43.49
42169;BME280;27838;43.858;25.974;2023-06-10T00:33:42;100469.97;;;23.93;44.52
42169;BME280;27838;43.858;25.974;2023-06-10T00:36:09;100465.03;;;23.87;45.61
42169;BME280;27838;43.858;25.974;2023-06-10T00:38:36;100470.09;;;23.76;46.60
42169;BME280;27838;43.858;25.974;2023-06-10T00:41:02;100472.19;;;23.71;46.94
42169;BME280;27838;43.858;25.974;2023-06-10T00:43:29;100477.59;;;23.69;46.85
42169;BME280;27838;43.858;25.974;2023-06-10T00:45:55;100483.97;;;23.67;47.12
42169;BME280;27838;43.858;25.974;2023-06-10T00:48:22;100476.81;;;23.67;45.85
42169;BME280;27838;43.858;25.974;2023-06-10T00:50:50;100483.78;;;23.70;45.33
42169;BME280;27838;43.858;25.974;2023-06-10T00:53:16;100483.03;;;23.68;44.98
42169;BME280;27838;43.858;25.974;2023-06-10T00:55:44;100488.44;;;23.66;44.88
42169;BME280;27838;43.858;25.974;2023-06-10T00:58:10;100483.03;;;23.68;45.14
42169;BME280;27838;43.858;25.974;2023-06-10T01:00:37;100492.69;;;23.69;45.17
42169;BME280;27838;43.858;25.974;2023-06-10T01:03:04;100475.22;;;23.65;45.32
42169;BME280;27838;43.858;25.974;2023-06-10T01:05:35;100477.69;;;23.68;45.32
42169;BME280;27838;43.858;25.974;2023-06-10T01:10:51;100483.97;;;23.67;45.45
42169;BME280;27838;43.858;25.974;2023-06-10T01:13:22;100477.97;;;23.63;45.41
42169;BME280;27838;43.858;25.974;2023-06-10T01:15:50;100488.44;;;23.66;45.55
42169;BME280;27838;43.858;25.974;2023-06-10T01:18:18;100475.03;;;23.68;45.60
42169;BME280;27838;43.858;25.974;2023-06-10T01:20:45;100477.69;;;23.68;45.60
42169;BME280;27838;43.858;25.974;2023-06-10T01:23:12;100477.69;;;23.68;45.56
42169;BME280;27838;43.858;25.974;2023-06-10T01:25:53;100475.03;;;23.68;45.54
42169;BME280;27838;43.858;25.974;2023-06-10T01:33:49;100464.75;;;23.62;45.42
42169;BME280;27838;43.858;25.974;2023-06-10T01:36:17;100468.34;;;23.61;45.36
42169;BME280;27838;43.858;25.974;2023-06-10T01:38:46;100466.66;;;23.60;45.43
42169;BME280;27838;43.858;25.974;2023-06-10T01:41:15;100459.41;;;23.62;45.49
42169;BME280;27838;43.858;25.974;2023-06-10T01:43:45;100460.47;;;23.59;45.24
42169;BME280;27838;43.858;25.974;2023-06-10T01:46:12;100454.38;;;23.57;45.38
42169;BME280;27838;43.858;25.974;2023-06-10T01:48:39;100461.66;;;23.53;45.35
42169;BME280;27838;43.858;25.974;2023-06-10T01:51:05;100449.69;;;23.46;45.33
42169;BME280;27838;43.858;25.974;2023-06-10T01:53:32;100448.91;;;23.44;45.24
42169;BME280;27838;43.858;25.974;2023-06-10T01:55:58;100457.81;;;23.43;45.12
42169;BME280;27838;43.858;25.974;2023-06-10T01:58:25;100460.47;;;23.43;45.04
42169;BME280;27838;43.858;25.974;2023-06-10T02:00:51;100452.72;;;23.40;44.95
42169;BME280;27838;43.858;25.974;2023-06-10T02:03:18;100452.63;;;23.42;44.76
42169;BME280;27838;43.858;25.974;2023-06-10T02:05:45;100446.44;;;23.41;44.68
42169;BME280;27838;43.858;25.974;2023-06-10T02:08:11;100449.97;;;23.42;44.67
42169;BME280;27838;43.858;25.974;2023-06-10T02:10:38;100442.25;;;23.37;44.58
42169;BME280;27838;43.858;25.974;2023-06-10T02:13:06;100445.91;;;23.34;44.57
42169;BME280;27838;43.858;25.974;2023-06-10T02:15:33;100459.31;;;23.33;44.65
42169;BME280;27838;43.858;25.974;2023-06-10T02:18:00;100464.81;;;23.30;44.58
42169;BME280;27838;43.858;25.974;2023-06-10T02:20:27;100466.88;;;23.25;44.68
42169;BME280;27838;43.858;25.974;2023-06-10T02:22:54;100481.78;;;23.27;45.09
42169;BME280;27838;43.858;25.974;2023-06-10T02:25:20;100479.03;;;23.29;45.36
42169;BME280;27838;43.858;25.974;2023-06-10T02:27:47;100481.09;;;23.24;45.13
42169;BME280;27838;43.858;25.974;2023-06-10T02:30:13;100479.56;;;23.19;45.36
42169;BME280;27838;43.858;25.974;2023-06-10T02:32:40;100479.56;;;23.19;45.78
42169;BME280;27838;43.858;25.974;2023-06-10T02:35:07;100493.13;;;23.15;45.95
42169;BME280;27838;43.858;25.974;2023-06-10T02:37:37;100502.22;;;23.11;46.83
42169;BME280;27838;43.858;25.974;2023-06-10T02:40:04;100505.72;;;23.11;46.93
42169;BME280;27838;43.858;25.974;2023-06-10T02:42:31;100513.84;;;23.08;47.32
42169;BME280;27838;43.858;25.974;2023-06-10T02:44:57;100507.41;;;22.96;49.01
42169;BME280;27838;43.858;25.974;2023-06-10T02:47:24;100505.94;;;22.91;49.30
42169;BME280;27838;43.858;25.974;2023-06-10T02:49:51;100493.44;;;22.77;49.57
42169;BME280;27838;43.858;25.974;2023-06-10T02:52:17;100507.19;;;22.68;49.93
42169;BME280;27838;43.858;25.974;2023-06-10T02:54:44;100504.88;;;22.61;50.08
42169;BME280;27838;43.858;25.974;2023-06-10T02:57:11;100500.31;;;22.48;50.78
42169;BME280;27838;43.858;25.974;2023-06-10T02:59:39;100495.38;;;22.40;50.89
42169;BME280;27838;43.858;25.974;2023-06-10T03:02:06;100508.66;;;22.40;51.12
42169;BME280;27838;43.858;25.974;2023-06-10T03:04:33;100512.34;;;22.37;51.13
42169;BME280;27838;43.858;25.974;2023-06-10T03:06:59;100526.25;;;22.42;51.04
42169;BME280;27838;43.858;25.974;2023-06-10T03:09:29;100508.16;;;22.33;51.33
42169;BME280;27838;43.858;25.974;2023-06-10T03:11:55;100517.50;;;22.23;51.73
42169;BME280;27838;43.858;25.974;2023-06-10T03:14:22;100511.72;;;22.15;52.01
42169;BME280;27838;43.858;25.974;2023-06-10T03:16:50;100510.94;;;22.13;51.97
42169;BME280;27838;43.858;25.974;2023-06-10T03:19:16;100515.41;;;22.12;52.31
42169;BME280;27838;43.858;25.974;2023-06-10T03:21:49;100509.16;;;22.13;52.21
42169;BME280;27838;43.858;25.974;2023-06-10T03:24:20;100516.34;;;22.11;52.28
42169;BME280;27838;43.858;25.974;2023-06-10T03:26:47;100510.19;;;22.11;52.59
42169;BME280;27838;43.858;25.974;2023-06-10T03:29:13;100519.53;;;22.18;52.49
42169;BME280;27838;43.858;25.974;2023-06-10T03:31:40;100528.19;;;22.21;52.63
42169;BME280;27838;43.858;25.974;2023-06-10T03:34:06;100520.31;;;22.20;52.41
42169;BME280;27838;43.858;25.974;2023-06-10T03:36:33;100509.34;;;22.26;52.22
42169;BME280;27838;43.858;25.974;2023-06-10T03:39:02;100517.13;;;22.31;52.10
42169;BME280;27838;43.858;25.974;2023-06-10T03:41:29;100524.84;;;22.35;51.96
42169;BME280;27838;43.858;25.974;2023-06-10T03:43:57;100523.75;;;22.39;51.94
42169;BME280;27838;43.858;25.974;2023-06-10T03:46:23;100517.31;;;22.43;51.81
42169;BME280;27838;43.858;25.974;2023-06-10T03:48:50;100520.72;;;22.47;51.70
42169;BME280;27838;43.858;25.974;2023-06-10T03:51:17;100521.41;;;22.51;51.49
42169;BME280;27838;43.858;25.974;2023-06-10T03:53:43;100503.97;;;22.45;51.32
42169;BME280;27838;43.858;25.974;2023-06-10T03:56:10;100518.25;;;22.60;51.04
42169;BME280;27838;43.858;25.974;2023-06-10T03:58:36;100519.00;;;22.62;51.15
42169;BME280;27838;43.858;25.974;2023-06-10T04:01:03;100522.44;;;22.64;50.80
42169;BME280;27838;43.858;25.974;2023-06-10T04:03:29;100519.78;;;22.64;50.92
42169;BME280;27838;43.858;25.974;2023-06-10T04:05:56;100529.47;;;22.65;50.56
42169;BME280;27838;43.858;25.974;2023-06-10T04:08:23;100531.09;;;22.68;49.94
42169;BME280;27838;43.858;25.974;2023-06-10T04:10:49;100537.09;;;22.71;50.19
42169;BME280;27838;43.858;25.974;2023-06-10T04:13:16;100529.31;;;22.68;49.85
42169;BME280;27838;43.858;25.974;2023-06-10T04:15:44;100538.84;;;22.72;49.78
42169;BME280;27838;43.858;25.974;2023-06-10T04:18:11;100547.56;;;22.74;49.22
42169;BME280;27838;43.858;25.974;2023-06-10T04:20:38;100538.69;;;22.75;49.02
42169;BME280;27838;43.858;25.974;2023-06-10T04:23:04;100545.53;;;22.79;48.99
42169;BME280;27838;43.858;25.974;2023-06-10T04:25:31;100536.78;;;22.77;48.84
42169;BME280;27838;43.858;25.974;2023-06-10T04:27:57;100524.69;;;22.72;49.00
42169;BME280;27838;43.858;25.974;2023-06-10T04:30:24;100533.38;;;22.75;48.68
42169;BME280;27838;43.858;25.974;2023-06-10T04:32:50;100528.22;;;22.72;48.70
42169;BME280;27838;43.858;25.974;2023-06-10T04:35:17;100529.22;;;22.70;48.56
42169;BME280;27838;43.858;25.974;2023-06-10T04:37:43;100530.63;;;22.77;48.43
42169;BME280;27838;43.858;25.974;2023-06-10T04:40:10;100530.34;;;22.81;48.29
42169;BME280;27838;43.858;25.974;2023-06-10T04:42:37;100530.97;;;22.87;47.80
42169;BME280;27838;43.858;25.974;2023-06-10T04:45:04;100530.03;;;22.88;47.63
42169;BME280;27838;43.858;25.974;2023-06-10T04:47:31;100534.41;;;22.89;47.45
42169;BME280;27838;43.858;25.974;2023-06-10T04:49:58;100532.44;;;22.92;47.68
42169;BME280;27838;43.858;25.974;2023-06-10T04:52:25;100528.91;;;22.92;47.13
42169;BME280;27838;43.858;25.974;2023-06-10T04:54:51;100529.00;;;22.90;47.63
42169;BME280;27838;43.858;25.974;2023-06-10T04:57:18;100525.13;;;22.96;47.18
42169;BME280;27838;43.858;25.974;2023-06-10T04:59:45;100529.03;;;23.06;47.48
42169;BME280;27838;43.858;25.974;2023-06-10T05:02:12;100524.34;;;23.11;47.37
42169;BME280;27838;43.858;25.974;2023-06-10T05:04:39;100528.28;;;23.20;47.40
42169;BME280;27838;43.858;25.974;2023-06-10T05:07:05;100527.25;;;23.23;47.63
42169;BME280;27838;43.858;25.974;2023-06-10T05:09:32;100528.63;;;23.30;47.59
42169;BME280;27838;43.858;25.974;2023-06-10T05:11:59;100531.13;;;23.33;47.33
42169;BME280;27838;43.858;25.974;2023-06-10T05:14:25;100532.22;;;23.29;47.10
42169;BME280;27838;43.858;25.974;2023-06-10T05:16:52;100524.00;;;23.33;47.50
42169;BME280;27838;43.858;25.974;2023-06-10T05:19:19;100540.97;;;23.47;47.29
42169;BME280;27838;43.858;25.974;2023-06-10T05:21:46;100532.38;;;23.58;46.91
42169;BME280;27838;43.858;25.974;2023-06-10T05:24:13;100523.28;;;23.62;47.14
42169;BME280;27838;43.858;25.974;2023-06-10T05:26:39;100523.69;;;23.70;47.06
42169;BME280;27838;43.858;25.974;2023-06-10T05:29:07;100528.84;;;23.73;46.92
42169;BME280;27838;43.858;25.974;2023-06-10T05:31:34;100529.41;;;23.78;46.66
42169;BME280;27838;43.858;25.974;2023-06-10T05:34:01;100528.72;;;23.74;46.25
42169;BME280;27838;43.858;25.974;2023-06-10T05:36:27;100527.53;;;23.80;46.25
42169;BME280;27838;43.858;25.974;2023-06-10T05:38:54;100528.34;;;23.82;45.96
42169;BME280;27838;43.858;25.974;2023-06-10T05:41:21;100539.91;;;23.81;45.93
42169;BME280;27838;43.858;25.974;2023-06-10T05:43:48;100533.38;;;23.87;45.68
42169;BME280;27838;43.858;25.974;2023-06-10T05:46:14;100536.53;;;23.93;45.39
42169;BME280;27838;43.858;25.974;2023-06-10T05:48:41;100540.75;;;23.98;45.01
42169;BME280;27838;43.858;25.974;2023-06-10T05:51:07;100537.78;;;24.02;45.35
42169;BME280;27838;43.858;25.974;2023-06-10T05:53:35;100543.13;;;24.02;45.67
42169;BME280;27838;43.858;25.974;2023-06-10T05:56:02;100551.97;;;24.03;45.26
42169;BME280;27838;43.858;25.974;2023-06-10T05:58:28;100542.31;;;23.86;45.97
42169;BME280;27838;43.858;25.974;2023-06-10T06:00:55;100547.09;;;23.79;46.54
42169;BME280;27838;43.858;25.974;2023-06-10T06:03:21;100544.38;;;23.81;46.85
42169;BME280;27838;43.858;25.974;2023-06-10T06:05:48;100541.88;;;23.78;46.80
42169;BME280;27838;43.858;25.974;2023-06-10T06:08:15;100549.75;;;23.79;46.68
42169;BME280;27838;43.858;25.974;2023-06-10T06:10:44;100549.09;;;23.75;46.18
42169;BME280;27838;43.858;25.974;2023-06-10T06:13:13;100545.50;;;23.77;46.37
42169;BME280;27838;43.858;25.974;2023-06-10T06:15:39;100549.16;;;23.74;46.43
42169;BME280;27838;43.858;25.974;2023-06-10T06:18:06;100550.69;;;23.78;46.55
42169;BME280;27838;43.858;25.974;2023-06-10T06:20:32;100561.03;;;23.84;46.23
42169;BME280;27838;43.858;25.974;2023-06-10T06:22:59;100555.38;;;23.90;46.38
42169;BME280;27838;43.858;25.974;2023-06-10T06:25:25;100548.31;;;23.89;46.88
42169;BME280;27838;43.858;25.974;2023-06-10T06:27:52;100554.97;;;23.97;46.63
42169;BME280;27838;43.858;25.974;2023-06-10T06:30:18;100548.06;;;23.94;46.17
42169;BME280;27838;43.858;25.974;2023-06-10T06:32:45;100551.38;;;23.98;45.58
42169;BME280;27838;43.858;25.974;2023-06-10T06:35:12;100552.16;;;24.00;45.34
42169;BME280;27838;43.858;25.974;2023-06-10T06:37:38;100551.97;;;24.03;45.51
42169;BME280;27838;43.858;25.974;2023-06-10T06:40:05;100549.91;;;24.08;45.87
42169;BME280;27838;43.858;25.974;2023-06-10T06:42:32;100548.00;;;24.10;45.84
42169;BME280;27838;43.858;25.974;2023-06-10T06:44:59;100542.38;;;24.15;45.87
42169;BME280;27838;43.858;25.974;2023-06-10T06:47:25;100549.16;;;24.20;45.85
42169;BME280;27838;43.858;25.974;2023-06-10T06:49:52;100540.38;;;24.18;46.22
42169;BME280;27838;43.858;25.974;2023-06-10T06:52:19;100543.47;;;24.26;46.08
42169;BME280;27838;43.858;25.974;2023-06-10T06:54:45;100548.59;;;24.29;45.64
42169;BME280;27838;43.858;25.974;2023-06-10T06:57:12;100546.03;;;24.28;45.50
42169;BME280;27838;43.858;25.974;2023-06-10T06:59:38;100534.44;;;24.29;45.43
42169;BME280;27838;43.858;25.974;2023-06-10T07:02:05;100543.94;;;24.33;45.35
42169;BME280;27838;43.858;25.974;2023-06-10T07:04:32;100535.19;;;24.31;45.18
42169;BME280;27838;43.858;25.974;2023-06-10T07:06:59;100538.16;;;24.41;45.13
42169;BME280;27838;43.858;25.974;2023-06-10T07:09:25;100537.78;;;24.47;44.65
42169;BME280;27838;43.858;25.974;2023-06-10T07:11:53;100539.16;;;24.54;44.04
42169;BME280;27838;43.858;25.974;2023-06-10T07:14:20;100538.75;;;24.60;43.82
42169;BME280;27838;43.858;25.974;2023-06-10T07:16:46;100532.31;;;24.64;44.18
42169;BME280;27838;43.858;25.974;2023-06-10T07:19:13;100533.66;;;24.57;44.55
42169;BME280;27838;43.858;25.974;2023-06-10T07:21:40;100537.34;;;24.55;44.48
42169;BME280;27838;43.858;25.974;2023-06-10T07:24:06;100535.34;;;24.58;44.85
42169;BME280;27838;43.858;25.974;2023-06-10T07:26:33;100538.97;;;24.57;45.42
42169;BME280;27838;43.858;25.974;2023-06-10T07:28:59;100533.81;;;24.54;45.57
42169;BME280;27838;43.858;25.974;2023-06-10T07:31:26;100539.63;;;24.61;45.17
42169;BME280;27838;43.858;25.974;2023-06-10T07:33:52;100536.00;;;24.62;45.34
42169;BME280;27838;43.858;25.974;2023-06-10T07:36:19;100530.88;;;24.59;45.43
42169;BME280;27838;43.858;25.974;2023-06-10T07:38:46;100530.09;;;24.57;45.44
42169;BME280;27838;43.858;25.974;2023-06-10T07:41:12;100527.06;;;24.63;45.52
42169;BME280;27838;43.858;25.974;2023-06-10T07:43:39;100526.00;;;24.65;45.65
42169;BME280;27838;43.858;25.974;2023-06-10T07:46:06;100530.03;;;24.73;45.86
42169;BME280;27838;43.858;25.974;2023-06-10T07:48:32;100539.72;;;24.74;45.52
42169;BME280;27838;43.858;25.974;2023-06-10T07:50:59;100538.94;;;24.86;45.55
42169;BME280;27838;43.858;25.974;2023-06-10T07:53:25;100537.13;;;24.86;45.20
42169;BME280;27838;43.858;25.974;2023-06-10T07:55:53;100537.81;;;24.90;44.97
42169;BME280;27838;43.858;25.974;2023-06-10T07:58:20;100528.75;;;24.93;44.71
42169;BME280;27838;43.858;25.974;2023-06-10T08:00:47;100532.66;;;25.01;44.77
42169;BME280;27838;43.858;25.974;2023-06-10T08:03:13;100530.56;;;25.06;44.65
42169;BME280;27838;43.858;25.974;2023-06-10T08:05:40;100535.19;;;25.17;44.68
42169;BME280;27838;43.858;25.974;2023-06-10T08:08:07;100527.84;;;25.21;44.74
42169;BME280;27838;43.858;25.974;2023-06-10T08:10:33;100528.44;;;25.26;44.50
42169;BME280;27838;43.858;25.974;2023-06-10T08:13:00;100525.28;;;25.19;44.23
42169;BME280;27838;43.858;25.974;2023-06-10T08:15:26;100524.09;;;25.25;44.11
42169;BME280;27838;43.858;25.974;2023-06-10T08:17:53;100523.13;;;25.26;42.33
42169;BME280;27838;43.858;25.974;2023-06-10T08:20:19;100524.53;;;25.32;43.36
42169;BME280;27838;43.858;25.974;2023-06-10T08:22:46;100522.50;;;25.35;43.27
42169;BME280;27838;43.858;25.974;2023-06-10T08:25:12;100527.44;;;25.41;42.96
42169;BME280;27838;43.858;25.974;2023-06-10T08:27:39;100519.66;;;25.38;42.28
42169;BME280;27838;43.858;25.974;2023-06-10T08:30:06;100525.34;;;25.47;43.65
42169;BME280;27838;43.858;25.974;2023-06-10T08:32:33;100516.03;;;25.39;44.45
42169;BME280;27838;43.858;25.974;2023-06-10T08:34:59;100516.59;;;25.44;44.55
42169;BME280;27838;43.858;25.974;2023-06-10T08:37:26;100515.72;;;25.44;44.68
42169;BME280;27838;43.858;25.974;2023-06-10T08:39:52;100525.72;;;25.40;45.36
42169;BME280;27838;43.858;25.974;2023-06-10T08:42:31;100523.06;;;25.40;45.28
42169;BME280;27838;43.858;25.974;2023-06-10T08:45:01;100526.50;;;25.42;45.23
42169;BME280;27838;43.858;25.974;2023-06-10T08:47:30;100529.69;;;25.48;45.43
42169;BME280;27838;43.858;25.974;2023-06-10T08:50:03;100523.13;;;25.53;45.21
42169;BME280;27838;43.858;25.974;2023-06-10T08:52:36;100518.25;;;25.60;44.67
42169;BME280;27838;43.858;25.974;2023-06-10T08:55:08;100522.50;;;25.62;43.74
42169;BME280;27838;43.858;25.974;2023-06-10T08:57:37;100512.69;;;25.63;43.92
42169;BME280;27838;43.858;25.974;2023-06-10T09:00:04;100509.06;;;25.64;43.55
42169;BME280;27838;43.858;25.974;2023-06-10T09:02:33;100514.88;;;25.71;43.07
42169;BME280;27838;43.858;25.974;2023-06-10T09:05:02;100511.88;;;25.75;43.35
42169;BME280;27838;43.858;25.974;2023-06-10T09:07:30;100510.81;;;25.78;43.40
42169;BME280;27838;43.858;25.974;2023-06-10T09:10:00;100505.38;;;25.79;43.07
42169;BME280;27838;43.858;25.974;2023-06-10T09:12:29;100496.09;;;25.85;43.53
42169;BME280;27838;43.858;25.974;2023-06-10T09:14:55;100494.66;;;25.94;43.40
42169;BME280;27838;43.858;25.974;2023-06-10T09:17:22;100496.53;;;25.92;43.43
42169;BME280;27838;43.858;25.974;2023-06-10T09:19:48;100493.47;;;25.98;42.91
42169;BME280;27838;43.858;25.974;2023-06-10T09:22:18;100491.44;;;26.02;43.28
42169;BME280;27838;43.858;25.974;2023-06-10T09:24:46;100495.72;;;26.04;43.33
42169;BME280;27838;43.858;25.974;2023-06-10T09:27:13;100488.78;;;26.02;42.93
42169;BME280;27838;43.858;25.974;2023-06-10T09:29:53;100494.75;;;26.05;42.55
42169;BME280;27838;43.858;25.974;2023-06-10T09:32:21;100494.25;;;26.13;42.63
42169;BME280;27838;43.858;25.974;2023-06-10T09:34:48;100487.19;;;26.12;42.07
42169;BME280;27838;43.858;25.974;2023-06-10T09:37:25;100479.06;;;26.13;41.74
42169;BME280;27838;43.858;25.974;2023-06-10T09:40:08;100481.88;;;26.25;41.40
42169;BME280;27838;43.858;25.974;2023-06-10T09:42:37;100472.66;;;26.29;41.47
42169;BME280;27838;43.858;25.974;2023-06-10T09:45:05;100483.69;;;26.37;41.41
42169;BME280;27838;43.858;25.974;2023-06-10T09:47:33;100480.03;;;26.38;41.97
42169;BME280;27838;43.858;25.974;2023-06-10T09:49:59;100478.19;;;26.38;42.14
42169;BME280;27838;43.858;25.974;2023-06-10T09:52:28;100483.44;;;26.53;42.64
42169;BME280;27838;43.858;25.974;2023-06-10T09:55:02;100476.81;;;26.59;41.89
42169;BME280;27838;43.858;25.974;2023-06-10T09:57:32;100476.81;;;26.71;41.13
42169;BME280;27838;43.858;25.974;2023-06-10T09:59:59;100478.38;;;26.87;41.42
42169;BME280;27838;43.858;25.974;2023-06-10T10:02:30;100479.84;;;27.04;41.53
42169;BME280;27838;43.858;25.974;2023-06-10T10:05:03;100475.63;;;27.12;40.78
42169;BME280;27838;43.858;25.974;2023-06-10T10:07:30;100466.69;;;27.25;40.72
42169;BME280;27838;43.858;25.974;2023-06-10T10:09:56;100468.81;;;27.33;40.01
42169;BME280;27838;43.858;25.974;2023-06-10T10:12:23;100462.53;;;27.45;40.30
42169;BME280;27838;43.858;25.974;2023-06-10T10:14:51;100455.53;;;27.55;39.97
42169;BME280;27838;43.858;25.974;2023-06-10T10:17:19;100459.94;;;27.67;39.35
42169;BME280;27838;43.858;25.974;2023-06-10T10:19:53;100461.69;;;27.80;38.74
42169;BME280;27838;43.858;25.974;2023-06-10T10:22:31;100464.84;;;27.98;38.33
42169;BME280;27838;43.858;25.974;2023-06-10T10:25:02;100454.38;;;28.17;37.59
42169;BME280;27838;43.858;25.974;2023-06-10T10:27:52;100455.00;;;28.43;36.73
42169;BME280;27838;43.858;25.974;2023-06-10T10:30:22;100447.59;;;28.58;36.53
42169;BME280;27838;43.858;25.974;2023-06-10T10:33:18;100440.38;;;28.70;36.21
42169;BME280;27838;43.858;25.974;2023-06-10T10:35:46;100437.94;;;28.67;34.76
42169;BME280;27838;43.858;25.974;2023-06-10T10:38:13;100440.63;;;28.67;34.56
42169;BME280;27838;43.858;25.974;2023-06-10T10:40:41;100433.81;;;28.63;34.42
42169;BME280;27838;43.858;25.974;2023-06-10T10:43:09;100431.38;;;28.60;33.85
42169;BME280;27838;43.858;25.974;2023-06-10T10:45:35;100432.63;;;28.56;35.06
42169;BME280;27838;43.858;25.974;2023-06-10T10:48:09;100418.09;;;28.58;35.49
42169;BME280;27838;43.858;25.974;2023-06-10T10:50:37;100412.84;;;28.57;35.31
42169;BME280;27838;43.858;25.974;2023-06-10T10:53:05;100410.78;;;28.60;34.32
42169;BME280;27838;43.858;25.974;2023-06-10T10:55:32;100412.69;;;28.81;34.78
42169;BME280;27838;43.858;25.974;2023-06-10T11:03:03;100422.25;;;29.17;34.13
42169;BME280;27838;43.858;25.974;2023-06-10T11:05:36;100419.06;;;29.24;33.92
42169;BME280;27838;43.858;25.974;2023-06-10T11:08:04;100412.44;;;29.28;33.29
42169;BME280;27838;43.858;25.974;2023-06-10T11:12:57;100412.72;;;29.46;32.33
42169;BME280;27838;43.858;25.974;2023-06-10T11:15:27;100406.97;;;29.50;31.27
42169;BME280;27838;43.858;25.974;2023-06-10T11:20:50;100395.69;;;29.56;28.82
42169;BME280;27838;43.858;25.974;2023-06-10T11:26:29;100393.19;;;29.76;28.12
42169;BME280;27838;43.858;25.974;2023-06-10T11:31:31;100388.72;;;29.86;26.46
42169;BME280;27838;43.858;25.974;2023-06-10T11:34:00;100383.66;;;29.93;26.63
42169;BME280;27838;43.858;25.974;2023-06-10T11:36:27;100377.88;;;29.98;27.29
42169;BME280;27838;43.858;25.974;2023-06-10T11:39:05;100376.81;;;30.10;27.58
42169;BME280;27838;43.858;25.974;2023-06-10T11:41:32;100374.31;;;30.18;26.83
42169;BME280;27838;43.858;25.974;2023-06-10T11:44:04;100372.34;;;30.20;25.53
42169;BME280;27838;43.858;25.974;2023-06-10T11:46:31;100366.81;;;30.22;25.42
42169;BME280;27838;43.858;25.974;2023-06-10T11:48:58;100364.13;;;30.22;25.18
42169;BME280;27838;43.858;25.974;2023-06-10T11:51:26;100358.91;;;30.20;25.47
42169;BME280;27838;43.858;25.974;2023-06-10T11:53:53;100353.13;;;30.25;25.92
42169;BME280;27838;43.858;25.974;2023-06-10T11:56:25;100351.53;;;30.22;26.35
42169;BME280;27838;43.858;25.974;2023-06-10T11:58:57;100348.59;;;30.25;26.54
42169;BME280;27838;43.858;25.974;2023-06-10T12:01:26;100346.28;;;30.21;26.43
42169;BME280;27838;43.858;25.974;2023-06-10T12:04:01;100351.28;;;30.25;27.56
42169;BME280;27838;43.858;25.974;2023-06-10T12:06:44;100348.59;;;30.25;27.16
42169;BME280;27838;43.858;25.974;2023-06-10T12:09:19;100349.81;;;30.21;26.92
42169;BME280;27838;43.858;25.974;2023-06-10T12:11:57;100351.09;;;30.17;26.67
42169;BME280;27838;43.858;25.974;2023-06-10T12:14:56;100346.28;;;30.11;27.37
42169;BME280;27838;43.858;25.974;2023-06-10T12:20:12;100337.09;;;30.13;28.15
42169;BME280;27838;43.858;25.974;2023-06-10T12:22:50;100333.00;;;30.19;27.55
42169;BME280;27838;43.858;25.974;2023-06-10T12:25:16;100340.34;;;30.17;27.50
42169;BME280;27838;43.858;25.974;2023-06-10T12:27:51;100333.13;;;30.18;26.77
42169;BME280;27838;43.858;25.974;2023-06-10T12:30:23;100331.56;;;30.15;27.23
42169;BME280;27838;43.858;25.974;2023-06-10T12:32:51;100329.03;;;30.13;26.62
42169;BME280;27838;43.858;25.974;2023-06-10T12:35:20;100329.84;;;30.14;27.14
42169;BME280;27838;43.858;25.974;2023-06-10T12:38:03;100323.66;;;30.13;26.62
42169;BME280;27838;43.858;25.974;2023-06-10T12:40:37;100329.97;;;30.03;27.11
42169;BME280;27838;43.858;25.974;2023-06-10T12:43:05;100317.81;;;29.99;27.33
42169;BME280;27838;43.858;25.974;2023-06-10T12:45:36;100313.69;;;29.94;27.21
42169;BME280;27838;43.858;25.974;2023-06-10T12:48:11;100315.13;;;29.99;27.85
42169;BME280;27838;43.858;25.974;2023-06-10T12:50:39;100312.00;;;30.03;28.00
42169;BME280;27838;43.858;25.974;2023-06-10T12:53:06;100310.34;;;30.12;27.71
42169;BME280;27838;43.858;25.974;2023-06-10T12:55:33;100306.41;;;30.16;27.52
42169;BME280;27838;43.858;25.974;2023-06-10T12:58:00;100306.69;;;30.23;27.59
42169;BME280;27838;43.858;25.974;2023-06-10T13:00:27;100305.00;;;30.22;27.96
42169;BME280;27838;43.858;25.974;2023-06-10T13:03:00;100306.13;;;30.19;27.93
42169;BME280;27838;43.858;25.974;2023-06-10T13:05:27;100310.78;;;30.17;28.10
42169;BME280;27838;43.858;25.974;2023-06-10T13:07:54;100313.47;;;30.17;27.95
42169;BME280;27838;43.858;25.974;2023-06-10T13:10:21;100307.25;;;30.17;27.14
42169;BME280;27838;43.858;25.974;2023-06-10T13:12:48;100303.72;;;30.16;27.60